Vance Air Force Base
KEND : now visible

Airfield :











YOU CAN JOIN US ON...

 
LOGIN :

Register | Disclaimer

   EN    FR    IT 

 









Legend :    VFR   Marginal VFR   IFR   Intensive IFR   Very Intensive IFR
Visi :
Ceiling :
>= 8 km
>= 3000ft
5 to 8 km
1000 to 3000 ft
1500m to 5 km
500 to 1000 ft
800 to 1500m
200 to 500 ft
< 800m
< 200 ft
Symbols :   Thunderstorms  Fog  Heavy snow  Heavy precipitations  Wind > 20 kt






- Airport Elevation : 1307 ft


KEND - Vance Air Force Base

CURRENT METAR :
  • 040755Z AUTO 13006KT 10SM CLR 01/M08 A3030 RMK AO2 SLP271 T00101078 $

EXPIRED METARs :
  • 040655Z AUTO 08003KT 10SM CLR 01/M08 A3033 RMK AO2 SLP282 T00081077 $
  • 040555Z AUTO 13003KT 10SM CLR 01/M05 A3035 RMK AO2 SLP290 T00051055 10016 21003 400501038 57016 $

TAF TAF KEND
Valid from the 04 at 02:00 until the 05 at 08:00 UTC


040200Z 0402/0508 VRB06KT 9999 OVC100 QNH3028INS
BECMG 0407/0408 15009KT 8000 BR OVC040 QNH3030INS
BECMG 0412/0413 16006KT 9999 NSW SCT007 OVC010 660001 QNH3025INS
BECMG 0418/0419 18008KT 9999 SCT050 BKN100 QNH3001INS TX06/0418Z TNM01/0409Z
KZKC FIR / North America



MET'MAP, your aeronautical weather chart ! - Copyright ORBIFLY December 2007 - Disclaimer

ORBIFLY MET'MAP TEAM :

Programming & Development : Alexandra Zaïnal
Original concept : Baudouin d'Aumeries
Technical & hardware support : Manuel Goepfert
Assistance : Marc-Olivier Méhu




SOURCES & CREDITS :

   NOAA       Earth
Advisory